sensor_id;sensor_type;location;lat;lon;timestamp;temperature;humidity
64111;DHT22;50401;48.188;11.566;2023-04-24T00:01:11;12.34;82.51
64111;DHT22;50401;48.188;11.566;2023-04-24T00:03:38;12.16;82.47
64111;DHT22;50401;48.188;11.566;2023-04-24T00:06:04;12.13;82.61
64111;DHT22;50401;48.188;11.566;2023-04-24T00:08:30;12.10;82.47
64111;DHT22;50401;48.188;11.566;2023-04-24T00:10:56;12.08;82.74
64111;DHT22;50401;48.188;11.566;2023-04-24T00:13:21;12.06;82.93
64111;DHT22;50401;48.188;11.566;2023-04-24T00:15:46;12.13;83.16
64111;DHT22;50401;48.188;11.566;2023-04-24T00:18:12;12.31;83.03
64111;DHT22;50401;48.188;11.566;2023-04-24T00:20:38;12.27;82.75
64111;DHT22;50401;48.188;11.566;2023-04-24T00:23:03;12.27;82.68
64111;DHT22;50401;48.188;11.566;2023-04-24T00:25:29;12.30;82.38
64111;DHT22;50401;48.188;11.566;2023-04-24T00:27:54;12.37;82.22
64111;DHT22;50401;48.188;11.566;2023-04-24T00:30:19;12.38;81.79
64111;DHT22;50401;48.188;11.566;2023-04-24T00:32:45;12.41;81.67
64111;DHT22;50401;48.188;11.566;2023-04-24T00:35:10;12.39;81.83
64111;DHT22;50401;48.188;11.566;2023-04-24T00:37:36;12.34;81.85
64111;DHT22;50401;48.188;11.566;2023-04-24T00:40:01;12.30;81.97
64111;DHT22;50401;48.188;11.566;2023-04-24T00:42:28;12.34;82.14
64111;DHT22;50401;48.188;11.566;2023-04-24T00:44:53;12.17;81.52
64111;DHT22;50401;48.188;11.566;2023-04-24T00:47:19;12.17;81.82
64111;DHT22;50401;48.188;11.566;2023-04-24T00:49:45;12.13;81.79
64111;DHT22;50401;48.188;11.566;2023-04-24T00:52:10;12.14;81.71
64111;DHT22;50401;48.188;11.566;2023-04-24T00:54:37;12.07;81.56
64111;DHT22;50401;48.188;11.566;2023-04-24T00:57:03;12.13;81.26
64111;DHT22;50401;48.188;11.566;2023-04-24T00:59:29;12.07;81.07
64111;DHT22;50401;48.188;11.566;2023-04-24T01:01:55;12.06;81.14
64111;DHT22;50401;48.188;11.566;2023-04-24T01:04:21;12.01;81.65
64111;DHT22;50401;48.188;11.566;2023-04-24T01:06:48;12.07;81.86
64111;DHT22;50401;48.188;11.566;2023-04-24T01:09:14;12.10;81.39
64111;DHT22;50401;48.188;11.566;2023-04-24T01:11:41;12.03;80.93
64111;DHT22;50401;48.188;11.566;2023-04-24T01:14:08;11.97;80.98
64111;DHT22;50401;48.188;11.566;2023-04-24T01:16:33;11.94;81.13
64111;DHT22;50401;48.188;11.566;2023-04-24T01:18:59;11.97;80.80
64111;DHT22;50401;48.188;11.566;2023-04-24T01:21:26;11.86;80.75
64111;DHT22;50401;48.188;11.566;2023-04-24T01:23:55;11.83;81.23
64111;DHT22;50401;48.188;11.566;2023-04-24T01:26:21;11.86;80.74
64111;DHT22;50401;48.188;11.566;2023-04-24T01:28:47;11.82;80.91
64111;DHT22;50401;48.188;11.566;2023-04-24T01:31:13;11.91;81.10
64111;DHT22;50401;48.188;11.566;2023-04-24T01:33:41;11.94;80.53
64111;DHT22;50401;48.188;11.566;2023-04-24T01:39:28;11.96;79.98
64111;DHT22;50401;48.188;11.566;2023-04-24T01:41:55;11.76;80.12
64111;DHT22;50401;48.188;11.566;2023-04-24T01:44:21;11.72;79.76
64111;DHT22;50401;48.188;11.566;2023-04-24T01:46:47;11.82;80.17
64111;DHT22;50401;48.188;11.566;2023-04-24T01:49:12;11.82;79.94
64111;DHT22;50401;48.188;11.566;2023-04-24T01:51:38;11.69;79.60
64111;DHT22;50401;48.188;11.566;2023-04-24T01:54:03;11.46;80.12
64111;DHT22;50401;48.188;11.566;2023-04-24T01:56:33;11.50;79.94
64111;DHT22;50401;48.188;11.566;2023-04-24T01:58:59;11.41;79.95
64111;DHT22;50401;48.188;11.566;2023-04-24T02:01:24;11.19;80.34
64111;DHT22;50401;48.188;11.566;2023-04-24T02:03:50;11.35;80.33
64111;DHT22;50401;48.188;11.566;2023-04-24T02:06:16;11.35;80.17
64111;DHT22;50401;48.188;11.566;2023-04-24T02:08:41;11.37;80.07
64111;DHT22;50401;48.188;11.566;2023-04-24T02:11:09;11.30;79.80
64111;DHT22;50401;48.188;11.566;2023-04-24T02:13:34;11.16;80.35
64111;DHT22;50401;48.188;11.566;2023-04-24T02:16:00;11.32;80.81
64111;DHT22;50401;48.188;11.566;2023-04-24T02:18:25;11.30;80.72
64111;DHT22;50401;48.188;11.566;2023-04-24T02:20:51;11.24;80.70
64111;DHT22;50401;48.188;11.566;2023-04-24T02:23:16;11.16;80.49
64111;DHT22;50401;48.188;11.566;2023-04-24T02:25:42;11.21;80.30
64111;DHT22;50401;48.188;11.566;2023-04-24T02:28:07;11.16;80.50
64111;DHT22;50401;48.188;11.566;2023-04-24T02:30:32;11.11;80.15
64111;DHT22;50401;48.188;11.566;2023-04-24T02:32:58;11.20;80.25
64111;DHT22;50401;48.188;11.566;2023-04-24T02:35:23;11.19;80.57
64111;DHT22;50401;48.188;11.566;2023-04-24T02:37:49;11.26;80.19
64111;DHT22;50401;48.188;11.566;2023-04-24T02:40:14;11.20;80.59
64111;DHT22;50401;48.188;11.566;2023-04-24T02:42:40;11.21;80.24
64111;DHT22;50401;48.188;11.566;2023-04-24T02:45:05;11.21;80.23
64111;DHT22;50401;48.188;11.566;2023-04-24T02:47:31;11.13;80.80
64111;DHT22;50401;48.188;11.566;2023-04-24T02:49:56;11.26;80.98
64111;DHT22;50401;48.188;11.566;2023-04-24T02:52:22;11.23;80.94
64111;DHT22;50401;48.188;11.566;2023-04-24T02:54:47;11.27;80.98
64111;DHT22;50401;48.188;11.566;2023-04-24T02:57:12;11.34;80.98
64111;DHT22;50401;48.188;11.566;2023-04-24T02:59:38;11.30;81.28
64111;DHT22;50401;48.188;11.566;2023-04-24T03:02:03;11.34;81.09
64111;DHT22;50401;48.188;11.566;2023-04-24T03:04:29;11.28;80.64
64111;DHT22;50401;48.188;11.566;2023-04-24T03:06:54;11.30;81.14
64111;DHT22;50401;48.188;11.566;2023-04-24T03:09:23;11.42;81.26
64111;DHT22;50401;48.188;11.566;2023-04-24T03:11:49;11.35;80.72
64111;DHT22;50401;48.188;11.566;2023-04-24T03:14:15;11.21;81.06
64111;DHT22;50401;48.188;11.566;2023-04-24T03:16:40;11.23;81.48
64111;DHT22;50401;48.188;11.566;2023-04-24T03:19:05;11.09;81.44
64111;DHT22;50401;48.188;11.566;2023-04-24T03:21:31;11.04;81.50
64111;DHT22;50401;48.188;11.566;2023-04-24T03:23:56;11.09;81.87
64111;DHT22;50401;48.188;11.566;2023-04-24T03:26:22;10.97;81.94
64111;DHT22;50401;48.188;11.566;2023-04-24T03:28:47;11.07;82.45
64111;DHT22;50401;48.188;11.566;2023-04-24T03:31:12;11.06;82.58
64111;DHT22;50401;48.188;11.566;2023-04-24T03:33:38;11.09;82.65
64111;DHT22;50401;48.188;11.566;2023-04-24T03:36:03;11.09;82.52
64111;DHT22;50401;48.188;11.566;2023-04-24T03:38:30;11.23;82.65
64111;DHT22;50401;48.188;11.566;2023-04-24T03:40:55;11.19;82.89
64111;DHT22;50401;48.188;11.566;2023-04-24T03:43:20;11.23;82.80
64111;DHT22;50401;48.188;11.566;2023-04-24T03:45:46;11.19;82.32
64111;DHT22;50401;48.188;11.566;2023-04-24T03:48:11;11.17;82.66
64111;DHT22;50401;48.188;11.566;2023-04-24T03:50:37;11.19;82.82
64111;DHT22;50401;48.188;11.566;2023-04-24T03:53:02;11.11;82.90
64111;DHT22;50401;48.188;11.566;2023-04-24T03:55:28;11.04;83.41
64111;DHT22;50401;48.188;11.566;2023-04-24T03:57:54;10.95;83.65
64111;DHT22;50401;48.188;11.566;2023-04-24T04:00:19;11.10;83.64
64111;DHT22;50401;48.188;11.566;2023-04-24T04:02:46;11.04;83.33
64111;DHT22;50401;48.188;11.566;2023-04-24T04:05:11;10.96;83.66
64111;DHT22;50401;48.188;11.566;2023-04-24T04:07:37;11.00;83.53
64111;DHT22;50401;48.188;11.566;2023-04-24T04:10:02;11.06;83.56
64111;DHT22;50401;48.188;11.566;2023-04-24T04:12:28;11.00;83.42
64111;DHT22;50401;48.188;11.566;2023-04-24T04:14:53;11.09;83.57
64111;DHT22;50401;48.188;11.566;2023-04-24T04:17:19;11.06;83.33
64111;DHT22;50401;48.188;11.566;2023-04-24T04:19:44;11.20;83.05
64111;DHT22;50401;48.188;11.566;2023-04-24T04:22:10;11.23;83.10
64111;DHT22;50401;48.188;11.566;2023-04-24T04:24:35;11.28;82.71
64111;DHT22;50401;48.188;11.566;2023-04-24T04:27:03;11.24;82.60
64111;DHT22;50401;48.188;11.566;2023-04-24T04:29:30;11.30;82.80
64111;DHT22;50401;48.188;11.566;2023-04-24T04:31:56;11.38;82.59
64111;DHT22;50401;48.188;11.566;2023-04-24T04:34:22;11.35;82.30
64111;DHT22;50401;48.188;11.566;2023-04-24T04:36:48;11.38;82.23
64111;DHT22;50401;48.188;11.566;2023-04-24T04:39:13;11.27;82.24
64111;DHT22;50401;48.188;11.566;2023-04-24T04:41:40;11.32;82.36
64111;DHT22;50401;48.188;11.566;2023-04-24T04:44:06;11.27;82.28
64111;DHT22;50401;48.188;11.566;2023-04-24T04:46:34;11.38;81.78
64111;DHT22;50401;48.188;11.566;2023-04-24T04:49:01;11.32;81.62
64111;DHT22;50401;48.188;11.566;2023-04-24T04:51:28;11.10;82.11
64111;DHT22;50401;48.188;11.566;2023-04-24T04:53:53;11.14;82.14
64111;DHT22;50401;48.188;11.566;2023-04-24T04:56:19;11.23;82.31
64111;DHT22;50401;48.188;11.566;2023-04-24T04:58:44;11.11;81.72
64111;DHT22;50401;48.188;11.566;2023-04-24T05:01:09;11.07;81.55
64111;DHT22;50401;48.188;11.566;2023-04-24T05:03:35;11.10;81.86
64111;DHT22;50401;48.188;11.566;2023-04-24T05:06:01;11.06;82.09
64111;DHT22;50401;48.188;11.566;2023-04-24T05:08:27;11.10;82.20
64111;DHT22;50401;48.188;11.566;2023-04-24T05:10:53;11.10;82.42
64111;DHT22;50401;48.188;11.566;2023-04-24T05:13:18;11.14;81.97
64111;DHT22;50401;48.188;11.566;2023-04-24T05:15:43;11.24;81.48
64111;DHT22;50401;48.188;11.566;2023-04-24T05:18:09;11.17;81.72
64111;DHT22;50401;48.188;11.566;2023-04-24T05:20:34;11.20;81.70
64111;DHT22;50401;48.188;11.566;2023-04-24T05:22:59;11.30;81.48
64111;DHT22;50401;48.188;11.566;2023-04-24T05:25:25;11.35;81.06
64111;DHT22;50401;48.188;11.566;2023-04-24T05:27:51;11.38;81.18
64111;DHT22;50401;48.188;11.566;2023-04-24T05:30:16;11.31;80.73
64111;DHT22;50401;48.188;11.566;2023-04-24T05:32:41;11.26;80.77
64111;DHT22;50401;48.188;11.566;2023-04-24T05:35:07;11.30;80.36
64111;DHT22;50401;48.188;11.566;2023-04-24T05:37:33;11.34;80.55
64111;DHT22;50401;48.188;11.566;2023-04-24T05:39:58;11.24;80.64
64111;DHT22;50401;48.188;11.566;2023-04-24T05:42:23;11.37;80.52
64111;DHT22;50401;48.188;11.566;2023-04-24T05:44:50;11.34;80.68
64111;DHT22;50401;48.188;11.566;2023-04-24T05:47:15;11.57;79.96
64111;DHT22;50401;48.188;11.566;2023-04-24T05:49:41;11.66;79.47
64111;DHT22;50401;48.188;11.566;2023-04-24T05:52:06;11.69;79.33
64111;DHT22;50401;48.188;11.566;2023-04-24T05:54:34;11.61;79.48
64111;DHT22;50401;48.188;11.566;2023-04-24T05:56:59;11.65;79.75
64111;DHT22;50401;48.188;11.566;2023-04-24T05:59:26;11.65;79.92
64111;DHT22;50401;48.188;11.566;2023-04-24T06:01:52;11.65;79.86
64111;DHT22;50401;48.188;11.566;2023-04-24T06:04:17;11.73;79.44
64111;DHT22;50401;48.188;11.566;2023-04-24T06:06:43;11.75;79.39
64111;DHT22;50401;48.188;11.566;2023-04-24T06:09:08;11.78;79.06
64111;DHT22;50401;48.188;11.566;2023-04-24T06:11:33;11.80;78.68
64111;DHT22;50401;48.188;11.566;2023-04-24T06:13:59;11.91;78.66
64111;DHT22;50401;48.188;11.566;2023-04-24T06:16:25;12.03;78.83
64111;DHT22;50401;48.188;11.566;2023-04-24T06:18:50;12.14;79.31
64111;DHT22;50401;48.188;11.566;2023-04-24T06:21:16;12.27;78.52
64111;DHT22;50401;48.188;11.566;2023-04-24T06:23:42;12.34;78.61
64111;DHT22;50401;48.188;11.566;2023-04-24T06:26:07;12.46;77.76
64111;DHT22;50401;48.188;11.566;2023-04-24T06:28:32;12.41;77.54
64111;DHT22;50401;48.188;11.566;2023-04-24T06:30:58;12.41;76.91
64111;DHT22;50401;48.188;11.566;2023-04-24T06:33:23;12.35;77.16
64111;DHT22;50401;48.188;11.566;2023-04-24T06:35:49;12.31;77.09
64111;DHT22;50401;48.188;11.566;2023-04-24T06:38:14;12.42;77.42
64111;DHT22;50401;48.188;11.566;2023-04-24T06:40:41;12.49;77.25
64111;DHT22;50401;48.188;11.566;2023-04-24T06:43:06;12.39;76.65
64111;DHT22;50401;48.188;11.566;2023-04-24T06:45:31;12.50;76.68
64111;DHT22;50401;48.188;11.566;2023-04-24T06:47:57;12.56;76.57
64111;DHT22;50401;48.188;11.566;2023-04-24T06:50:22;12.69;76.47
64111;DHT22;50401;48.188;11.566;2023-04-24T06:52:48;12.91;76.08
64111;DHT22;50401;48.188;11.566;2023-04-24T06:55:13;13.14;75.31
64111;DHT22;50401;48.188;11.566;2023-04-24T06:57:40;13.42;74.33
64111;DHT22;50401;48.188;11.566;2023-04-24T07:00:06;13.56;73.93
64111;DHT22;50401;48.188;11.566;2023-04-24T07:02:32;13.53;73.39
64111;DHT22;50401;48.188;11.566;2023-04-24T07:04:57;13.50;73.47
64111;DHT22;50401;48.188;11.566;2023-04-24T07:07:23;13.81;72.65
64111;DHT22;50401;48.188;11.566;2023-04-24T07:09:49;14.17;72.46
64111;DHT22;50401;48.188;11.566;2023-04-24T07:12:16;14.33;71.36
64111;DHT22;50401;48.188;11.566;2023-04-24T07:14:42;14.43;70.86
64111;DHT22;50401;48.188;11.566;2023-04-24T07:17:07;14.46;70.61
64111;DHT22;50401;48.188;11.566;2023-04-24T07:19:34;14.22;70.64
64111;DHT22;50401;48.188;11.566;2023-04-24T07:22:00;13.97;71.45
64111;DHT22;50401;48.188;11.566;2023-04-24T07:24:26;13.95;71.78
64111;DHT22;50401;48.188;11.566;2023-04-24T07:26:52;13.95;71.61
64111;DHT22;50401;48.188;11.566;2023-04-24T07:29:18;14.10;70.71
64111;DHT22;50401;48.188;11.566;2023-04-24T07:31:43;14.01;70.19
64111;DHT22;50401;48.188;11.566;2023-04-24T07:34:09;14.01;70.10
64111;DHT22;50401;48.188;11.566;2023-04-24T07:36:34;14.35;69.27
64111;DHT22;50401;48.188;11.566;2023-04-24T07:39:00;14.59;68.82
64111;DHT22;50401;48.188;11.566;2023-04-24T07:41:25;14.18;68.81
64111;DHT22;50401;48.188;11.566;2023-04-24T07:43:52;13.87;69.77
64111;DHT22;50401;48.188;11.566;2023-04-24T07:46:19;13.52;70.66
64111;DHT22;50401;48.188;11.566;2023-04-24T07:48:45;13.48;70.96
64111;DHT22;50401;48.188;11.566;2023-04-24T07:51:13;13.32;70.87
64111;DHT22;50401;48.188;11.566;2023-04-24T07:53:39;13.11;70.86
64111;DHT22;50401;48.188;11.566;2023-04-24T07:56:04;13.07;71.38
64111;DHT22;50401;48.188;11.566;2023-04-24T07:58:30;13.00;71.62
64111;DHT22;50401;48.188;11.566;2023-04-24T08:00:55;13.17;71.33
64111;DHT22;50401;48.188;11.566;2023-04-24T08:03:20;13.43;71.24
64111;DHT22;50401;48.188;11.566;2023-04-24T08:05:46;14.07;69.58
64111;DHT22;50401;48.188;11.566;2023-04-24T08:08:12;14.15;69.35
64111;DHT22;50401;48.188;11.566;2023-04-24T08:10:37;14.21;69.21
64111;DHT22;50401;48.188;11.566;2023-04-24T08:13:02;13.91;69.31
64111;DHT22;50401;48.188;11.566;2023-04-24T08:15:28;13.59;70.18
64111;DHT22;50401;48.188;11.566;2023-04-24T08:17:53;13.49;70.33
64111;DHT22;50401;48.188;11.566;2023-04-24T08:20:19;13.24;71.13
64111;DHT22;50401;48.188;11.566;2023-04-24T08:22:44;13.08;71.67
64111;DHT22;50401;48.188;11.566;2023-04-24T08:25:12;13.07;71.90
64111;DHT22;50401;48.188;11.566;2023-04-24T08:27:38;13.00;72.26
64111;DHT22;50401;48.188;11.566;2023-04-24T08:30:04;13.00;72.53
64111;DHT22;50401;48.188;11.566;2023-04-24T08:32:30;12.93;72.88
64111;DHT22;50401;48.188;11.566;2023-04-24T08:34:56;12.69;73.01
64111;DHT22;50401;48.188;11.566;2023-04-24T08:37:26;12.67;73.99
64111;DHT22;50401;48.188;11.566;2023-04-24T08:39:52;12.52;76.26
64111;DHT22;50401;48.188;11.566;2023-04-24T08:42:18;12.53;76.49
64111;DHT22;50401;48.188;11.566;2023-04-24T08:44:45;12.38;75.52
64111;DHT22;50401;48.188;11.566;2023-04-24T08:47:11;12.39;75.55
64111;DHT22;50401;48.188;11.566;2023-04-24T08:49:38;12.60;74.85
64111;DHT22;50401;48.188;11.566;2023-04-24T08:52:05;12.35;72.82
64111;DHT22;50401;48.188;11.566;2023-04-24T08:54:32;12.41;69.81
64111;DHT22;50401;48.188;11.566;2023-04-24T08:57:00;12.63;68.72
64111;DHT22;50401;48.188;11.566;2023-04-24T08:59:26;12.55;67.59
64111;DHT22;50401;48.188;11.566;2023-04-24T09:01:52;12.69;67.41
64111;DHT22;50401;48.188;11.566;2023-04-24T09:04:20;12.66;66.66
64111;DHT22;50401;48.188;11.566;2023-04-24T09:06:48;12.55;67.23
64111;DHT22;50401;48.188;11.566;2023-04-24T09:09:14;12.25;67.24
64111;DHT22;50401;48.188;11.566;2023-04-24T09:11:41;12.49;67.94
64111;DHT22;50401;48.188;11.566;2023-04-24T09:14:09;12.30;68.08
64111;DHT22;50401;48.188;11.566;2023-04-24T09:16:34;12.57;68.01
64111;DHT22;50401;48.188;11.566;2023-04-24T09:19:00;12.87;67.99
64111;DHT22;50401;48.188;11.566;2023-04-24T09:21:31;13.19;67.17
64111;DHT22;50401;48.188;11.566;2023-04-24T09:24:00;13.50;66.47
64111;DHT22;50401;48.188;11.566;2023-04-24T09:26:29;13.56;66.04
64111;DHT22;50401;48.188;11.566;2023-04-24T09:28:57;13.69;65.65
64111;DHT22;50401;48.188;11.566;2023-04-24T09:31:22;13.42;65.31
64111;DHT22;50401;48.188;11.566;2023-04-24T09:33:56;13.78;63.99
64111;DHT22;50401;48.188;11.566;2023-04-24T09:36:31;13.78;64.25
64111;DHT22;50401;48.188;11.566;2023-04-24T09:39:03;13.91;64.24
64111;DHT22;50401;48.188;11.566;2023-04-24T09:41:29;14.00;63.48
64111;DHT22;50401;48.188;11.566;2023-04-24T09:43:56;14.26;62.77
64111;DHT22;50401;48.188;11.566;2023-04-24T09:46:29;14.49;62.40
64111;DHT22;50401;48.188;11.566;2023-04-24T09:48:55;14.67;61.92
64111;DHT22;50401;48.188;11.566;2023-04-24T09:51:33;14.55;61.51
64111;DHT22;50401;48.188;11.566;2023-04-24T09:53:59;14.73;60.92
64111;DHT22;50401;48.188;11.566;2023-04-24T09:56:25;14.77;59.79
64111;DHT22;50401;48.188;11.566;2023-04-24T09:58:51;14.77;59.94
64111;DHT22;50401;48.188;11.566;2023-04-24T10:01:29;14.84;60.62
64111;DHT22;50401;48.188;11.566;2023-04-24T10:03:55;14.76;60.54
64111;DHT22;50401;48.188;11.566;2023-04-24T10:06:21;14.80;60.38
64111;DHT22;50401;48.188;11.566;2023-04-24T10:08:48;14.98;59.37
64111;DHT22;50401;48.188;11.566;2023-04-24T10:11:15;15.15;59.31
64111;DHT22;50401;48.188;11.566;2023-04-24T10:13:41;15.30;59.12
64111;DHT22;50401;48.188;11.566;2023-04-24T10:16:06;15.21;59.20
64111;DHT22;50401;48.188;11.566;2023-04-24T10:18:33;15.21;59.48
64111;DHT22;50401;48.188;11.566;2023-04-24T10:20:59;15.05;59.55
64111;DHT22;50401;48.188;11.566;2023-04-24T10:23:25;14.95;60.35
64111;DHT22;50401;48.188;11.566;2023-04-24T10:25:50;15.05;60.33
64111;DHT22;50401;48.188;11.566;2023-04-24T10:28:18;14.98;60.15
64111;DHT22;50401;48.188;11.566;2023-04-24T10:30:45;15.12;60.11
64111;DHT22;50401;48.188;11.566;2023-04-24T10:33:11;15.18;60.00
64111;DHT22;50401;48.188;11.566;2023-04-24T10:35:44;15.26;60.06
64111;DHT22;50401;48.188;11.566;2023-04-24T10:38:16;15.42;59.47
64111;DHT22;50401;48.188;11.566;2023-04-24T10:40:45;15.28;59.52
64111;DHT22;50401;48.188;11.566;2023-04-24T10:43:16;15.09;60.34
64111;DHT22;50401;48.188;11.566;2023-04-24T10:46:00;15.01;60.70
64111;DHT22;50401;48.188;11.566;2023-04-24T10:48:29;14.53;62.75
64111;DHT22;50401;48.188;11.566;2023-04-24T10:50:54;14.43;64.55
64111;DHT22;50401;48.188;11.566;2023-04-24T10:53:22;13.78;69.45
64111;DHT22;50401;48.188;11.566;2023-04-24T10:55:58;13.00;72.23
64111;DHT22;50401;48.188;11.566;2023-04-24T10:58:24;12.62;74.42
64111;DHT22;50401;48.188;11.566;2023-04-24T11:00:58;12.39;75.71
64111;DHT22;50401;48.188;11.566;2023-04-24T11:03:30;12.35;75.93
64111;DHT22;50401;48.188;11.566;2023-04-24T11:06:05;12.46;76.19
64111;DHT22;50401;48.188;11.566;2023-04-24T11:08:44;12.60;75.93
64111;DHT22;50401;48.188;11.566;2023-04-24T11:11:12;12.90;75.31
64111;DHT22;50401;48.188;11.566;2023-04-24T11:16:28;13.58;74.48
64111;DHT22;50401;48.188;11.566;2023-04-24T11:19:04;13.93;73.81
64111;DHT22;50401;48.188;11.566;2023-04-24T11:21:41;14.28;73.38
64111;DHT22;50401;48.188;11.566;2023-04-24T11:35:00;14.49;72.09
64111;DHT22;50401;48.188;11.566;2023-04-24T11:37:28;14.02;72.45
64111;DHT22;50401;48.188;11.566;2023-04-24T11:39:55;13.83;73.22
64111;DHT22;50401;48.188;11.566;2023-04-24T11:42:22;13.83;70.34
64111;DHT22;50401;48.188;11.566;2023-04-24T11:44:54;14.26;68.97
64111;DHT22;50401;48.188;11.566;2023-04-24T11:47:29;14.63;68.22
64111;DHT22;50401;48.188;11.566;2023-04-24T11:49:55;14.56;67.55
64111;DHT22;50401;48.188;11.566;2023-04-24T11:52:20;14.91;67.80
64111;DHT22;50401;48.188;11.566;2023-04-24T11:54:47;15.02;67.07
64111;DHT22;50401;48.188;11.566;2023-04-24T11:57:13;15.16;65.99
64111;DHT22;50401;48.188;11.566;2023-04-24T11:59:39;15.09;65.07
64111;DHT22;50401;48.188;11.566;2023-04-24T12:02:05;14.98;66.27
64111;DHT22;50401;48.188;11.566;2023-04-24T12:04:39;14.94;65.17
64111;DHT22;50401;48.188;11.566;2023-04-24T12:07:05;14.53;65.88
64111;DHT22;50401;48.188;11.566;2023-04-24T12:09:50;14.76;65.61
64111;DHT22;50401;48.188;11.566;2023-04-24T12:12:19;14.64;65.58
64111;DHT22;50401;48.188;11.566;2023-04-24T12:14:55;14.57;65.42
64111;DHT22;50401;48.188;11.566;2023-04-24T12:17:29;14.85;64.75
64111;DHT22;50401;48.188;11.566;2023-04-24T12:20:03;14.96;63.08
64111;DHT22;50401;48.188;11.566;2023-04-24T12:22:55;14.74;62.51
64111;DHT22;50401;48.188;11.566;2023-04-24T12:25:28;15.05;61.67
64111;DHT22;50401;48.188;11.566;2023-04-24T12:30:33;15.15;60.42
64111;DHT22;50401;48.188;11.566;2023-04-24T12:32:59;14.95;60.91
64111;DHT22;50401;48.188;11.566;2023-04-24T12:35:27;14.94;60.82
64111;DHT22;50401;48.188;11.566;2023-04-24T12:37:53;15.18;60.10
64111;DHT22;50401;48.188;11.566;2023-04-24T12:40:19;15.25;58.64
64111;DHT22;50401;48.188;11.566;2023-04-24T12:42:50;15.36;56.35
64111;DHT22;50401;48.188;11.566;2023-04-24T12:45:16;15.44;56.89
64111;DHT22;50401;48.188;11.566;2023-04-24T12:47:43;15.57;55.74
64111;DHT22;50401;48.188;11.566;2023-04-24T12:50:12;15.65;55.30
64111;DHT22;50401;48.188;11.566;2023-04-24T12:52:38;15.81;55.69
64111;DHT22;50401;48.188;11.566;2023-04-24T12:55:05;15.75;55.35
64111;DHT22;50401;48.188;11.566;2023-04-24T12:57:33;15.71;56.76
64111;DHT22;50401;48.188;11.566;2023-04-24T12:59:59;15.50;56.74
64111;DHT22;50401;48.188;11.566;2023-04-24T13:02:26;15.26;55.07
64111;DHT22;50401;48.188;11.566;2023-04-24T13:04:52;14.98;54.51
64111;DHT22;50401;48.188;11.566;2023-04-24T13:07:18;14.85;55.18
64111;DHT22;50401;48.188;11.566;2023-04-24T13:09:44;14.69;56.69
64111;DHT22;50401;48.188;11.566;2023-04-24T13:12:10;14.40;62.11
64111;DHT22;50401;48.188;11.566;2023-04-24T13:14:36;14.04;64.40
64111;DHT22;50401;48.188;11.566;2023-04-24T13:17:02;13.83;66.32
64111;DHT22;50401;48.188;11.566;2023-04-24T13:19:28;13.98;66.33
64111;DHT22;50401;48.188;11.566;2023-04-24T13:21:55;14.08;65.99
64111;DHT22;50401;48.188;11.566;2023-04-24T13:24:24;14.39;65.23
64111;DHT22;50401;48.188;11.566;2023-04-24T13:26:50;14.77;64.42
64111;DHT22;50401;48.188;11.566;2023-04-24T13:29:16;15.05;61.42
64111;DHT22;50401;48.188;11.566;2023-04-24T13:31:42;15.30;59.95
64111;DHT22;50401;48.188;11.566;2023-04-24T13:34:07;15.56;58.33
64111;DHT22;50401;48.188;11.566;2023-04-24T13:36:33;15.58;57.32
64111;DHT22;50401;48.188;11.566;2023-04-24T13:38:59;15.72;56.35
64111;DHT22;50401;48.188;11.566;2023-04-24T13:41:24;15.64;54.50
64111;DHT22;50401;48.188;11.566;2023-04-24T13:43:50;15.35;53.32
64111;DHT22;50401;48.188;11.566;2023-04-24T13:46:16;15.25;53.67
64111;DHT22;50401;48.188;11.566;2023-04-24T13:48:41;14.92;54.77
64111;DHT22;50401;48.188;11.566;2023-04-24T13:51:06;14.98;54.91
64111;DHT22;50401;48.188;11.566;2023-04-24T13:53:32;15.23;53.89
64111;DHT22;50401;48.188;11.566;2023-04-24T13:56:01;15.44;53.02
64111;DHT22;50401;48.188;11.566;2023-04-24T13:58:26;15.51;51.85
64111;DHT22;50401;48.188;11.566;2023-04-24T14:00:52;15.51;51.04
64111;DHT22;50401;48.188;11.566;2023-04-24T14:03:17;15.54;50.72
64111;DHT22;50401;48.188;11.566;2023-04-24T14:05:43;15.47;51.79
64111;DHT22;50401;48.188;11.566;2023-04-24T14:08:08;15.51;52.75
64111;DHT22;50401;48.188;11.566;2023-04-24T14:10:34;15.44;53.63
64111;DHT22;50401;48.188;11.566;2023-04-24T14:12:59;15.05;54.14
64111;DHT22;50401;48.188;11.566;2023-04-24T14:15:25;15.22;54.79
64111;DHT22;50401;48.188;11.566;2023-04-24T14:17:51;14.83;56.21
64111;DHT22;50401;48.188;11.566;2023-04-24T14:20:16;14.98;55.67
64111;DHT22;50401;48.188;11.566;2023-04-24T14:22:42;14.98;55.17
64111;DHT22;50401;48.188;11.566;2023-04-24T14:25:08;15.23;53.82
64111;DHT22;50401;48.188;11.566;2023-04-24T14:27:33;15.21;53.40
64111;DHT22;50401;48.188;11.566;2023-04-24T14:30:03;15.35;53.61
64111;DHT22;50401;48.188;11.566;2023-04-24T14:32:29;15.37;53.18
64111;DHT22;50401;48.188;11.566;2023-04-24T14:34:55;15.25;52.62
64111;DHT22;50401;48.188;11.566;2023-04-24T14:37:20;15.33;50.99
64111;DHT22;50401;48.188;11.566;2023-04-24T14:39:46;15.23;51.69
64111;DHT22;50401;48.188;11.566;2023-04-24T14:42:11;15.36;51.66
64111;DHT22;50401;48.188;11.566;2023-04-24T14:44:36;15.42;51.63
64111;DHT22;50401;48.188;11.566;2023-04-24T14:47:02;15.46;50.95
64111;DHT22;50401;48.188;11.566;2023-04-24T14:49:30;15.32;49.89
64111;DHT22;50401;48.188;11.566;2023-04-24T14:51:55;14.85;51.12
64111;DHT22;50401;48.188;11.566;2023-04-24T14:54:21;14.95;51.12
64111;DHT22;50401;48.188;11.566;2023-04-24T14:56:51;15.16;51.51
64111;DHT22;50401;48.188;11.566;2023-04-24T14:59:16;15.08;49.83
64111;DHT22;50401;48.188;11.566;2023-04-24T15:01:42;15.08;50.06
64111;DHT22;50401;48.188;11.566;2023-04-24T15:04:07;15.08;50.05
64111;DHT22;50401;48.188;11.566;2023-04-24T15:06:32;15.11;49.87
64111;DHT22;50401;48.188;11.566;2023-04-24T15:08:58;15.05;49.73
64111;DHT22;50401;48.188;11.566;2023-04-24T15:11:23;15.08;48.99
64111;DHT22;50401;48.188;11.566;2023-04-24T15:13:49;15.05;48.82
64111;DHT22;50401;48.188;11.566;2023-04-24T15:16:15;15.11;48.67
64111;DHT22;50401;48.188;11.566;2023-04-24T15:18:40;15.16;49.21
64111;DHT22;50401;48.188;11.566;2023-04-24T15:21:06;15.18;49.51
64111;DHT22;50401;48.188;11.566;2023-04-24T15:23:31;15.15;50.11
64111;DHT22;50401;48.188;11.566;2023-04-24T15:25:57;15.22;49.82
64111;DHT22;50401;48.188;11.566;2023-04-24T15:28:23;15.15;49.79
64111;DHT22;50401;48.188;11.566;2023-04-24T15:30:48;14.96;50.32